sensor_id;sensor_type;location;lat;lon;timestamp;P1;durP1;ratioP1;P2;durP2;ratioP2
21424;SDS011;10873;51.132;16.848;2022-10-18T00:02:22;8.38;;;5.82;;
21424;SDS011;10873;51.132;16.848;2022-10-18T00:04:48;9.00;;;6.35;;
21424;SDS011;10873;51.132;16.848;2022-10-18T00:07:16;6.28;;;5.65;;
21424;SDS011;10873;51.132;16.848;2022-10-18T00:09:42;6.78;;;5.80;;
21424;SDS011;10873;51.132;16.848;2022-10-18T00:12:08;7.55;;;6.60;;
21424;SDS011;10873;51.132;16.848;2022-10-18T00:14:34;9.38;;;6.00;;
21424;SDS011;10873;51.132;16.848;2022-10-18T00:17:00;7.63;;;6.20;;
21424;SDS011;10873;51.132;16.848;2022-10-18T00:19:26;7.60;;;5.57;;
21424;SDS011;10873;51.132;16.848;2022-10-18T00:21:52;6.35;;;5.75;;
21424;SDS011;10873;51.132;16.848;2022-10-18T00:24:20;6.88;;;5.80;;
21424;SDS011;10873;51.132;16.848;2022-10-18T00:26:46;7.57;;;6.43;;
21424;SDS011;10873;51.132;16.848;2022-10-18T00:29:13;9.30;;;6.22;;
21424;SDS011;10873;51.132;16.848;2022-10-18T00:31:41;7.30;;;6.45;;
21424;SDS011;10873;51.132;16.848;2022-10-18T00:34:09;8.43;;;6.68;;
21424;SDS011;10873;51.132;16.848;2022-10-18T00:36:37;9.48;;;6.25;;
21424;SDS011;10873;51.132;16.848;2022-10-18T00:39:03;6.93;;;5.97;;
21424;SDS011;10873;51.132;16.848;2022-10-18T00:41:33;7.40;;;6.45;;
21424;SDS011;10873;51.132;16.848;2022-10-18T00:44:01;8.27;;;6.30;;
21424;SDS011;10873;51.132;16.848;2022-10-18T00:46:30;9.07;;;6.07;;
21424;SDS011;10873;51.132;16.848;2022-10-18T00:48:58;6.85;;;6.15;;
21424;SDS011;10873;51.132;16.848;2022-10-18T00:51:27;7.03;;;6.00;;
21424;SDS011;10873;51.132;16.848;2022-10-18T00:53:56;9.55;;;5.85;;
21424;SDS011;10873;51.132;16.848;2022-10-18T00:56:23;9.00;;;6.50;;
21424;SDS011;10873;51.132;16.848;2022-10-18T00:58:51;8.57;;;6.60;;
21424;SDS011;10873;51.132;16.848;2022-10-18T01:01:17;9.45;;;7.50;;
21424;SDS011;10873;51.132;16.848;2022-10-18T01:03:43;8.63;;;7.40;;
21424;SDS011;10873;51.132;16.848;2022-10-18T01:06:10;12.32;;;6.55;;
21424;SDS011;10873;51.132;16.848;2022-10-18T01:08:42;8.98;;;6.55;;
21424;SDS011;10873;51.132;16.848;2022-10-18T01:11:22;9.18;;;7.28;;
21424;SDS011;10873;51.132;16.848;2022-10-18T01:14:04;8.55;;;6.70;;
21424;SDS011;10873;51.132;16.848;2022-10-18T01:16:42;7.72;;;6.93;;
21424;SDS011;10873;51.132;16.848;2022-10-18T01:19:29;10.95;;;7.32;;
21424;SDS011;10873;51.132;16.848;2022-10-18T01:22:22;12.98;;;8.63;;
21424;SDS011;10873;51.132;16.848;2022-10-18T01:24:56;10.02;;;8.23;;
21424;SDS011;10873;51.132;16.848;2022-10-18T01:27:32;9.50;;;7.15;;
21424;SDS011;10873;51.132;16.848;2022-10-18T01:33:02;8.65;;;7.25;;
21424;SDS011;10873;51.132;16.848;2022-10-18T01:35:34;9.50;;;6.68;;
21424;SDS011;10873;51.132;16.848;2022-10-18T01:38:05;8.48;;;6.90;;
21424;SDS011;10873;51.132;16.848;2022-10-18T01:40:35;8.82;;;6.65;;
21424;SDS011;10873;51.132;16.848;2022-10-18T01:43:03;7.93;;;6.28;;
21424;SDS011;10873;51.132;16.848;2022-10-18T01:45:33;9.90;;;6.60;;
21424;SDS011;10873;51.132;16.848;2022-10-18T01:48:00;9.18;;;6.53;;
21424;SDS011;10873;51.132;16.848;2022-10-18T01:50:27;8.32;;;6.78;;
21424;SDS011;10873;51.132;16.848;2022-10-18T01:52:55;10.18;;;6.60;;
21424;SDS011;10873;51.132;16.848;2022-10-18T01:55:23;7.93;;;6.25;;
21424;SDS011;10873;51.132;16.848;2022-10-18T01:57:56;11.35;;;6.03;;
21424;SDS011;10873;51.132;16.848;2022-10-18T02:00:28;7.72;;;6.20;;
21424;SDS011;10873;51.132;16.848;2022-10-18T02:03:02;8.02;;;6.10;;
21424;SDS011;10873;51.132;16.848;2022-10-18T02:05:35;7.57;;;6.28;;
21424;SDS011;10873;51.132;16.848;2022-10-18T02:08:10;7.20;;;6.13;;
21424;SDS011;10873;51.132;16.848;2022-10-18T02:10:43;10.98;;;5.80;;
21424;SDS011;10873;51.132;16.848;2022-10-18T02:13:13;9.10;;;6.40;;
21424;SDS011;10873;51.132;16.848;2022-10-18T02:15:43;8.38;;;6.20;;
21424;SDS011;10873;51.132;16.848;2022-10-18T02:18:14;9.77;;;5.95;;
21424;SDS011;10873;51.132;16.848;2022-10-18T02:20:46;7.30;;;5.63;;
21424;SDS011;10873;51.132;16.848;2022-10-18T02:23:14;10.07;;;5.97;;
21424;SDS011;10873;51.132;16.848;2022-10-18T02:25:44;7.57;;;5.93;;
21424;SDS011;10873;51.132;16.848;2022-10-18T02:28:10;8.32;;;6.15;;
21424;SDS011;10873;51.132;16.848;2022-10-18T02:30:38;10.07;;;6.22;;
21424;SDS011;10873;51.132;16.848;2022-10-18T02:33:08;6.65;;;5.88;;
21424;SDS011;10873;51.132;16.848;2022-10-18T02:35:41;6.78;;;5.88;;
21424;SDS011;10873;51.132;16.848;2022-10-18T02:38:10;6.80;;;6.10;;
21424;SDS011;10873;51.132;16.848;2022-10-18T02:40:38;9.70;;;5.90;;
21424;SDS011;10873;51.132;16.848;2022-10-18T02:43:04;8.77;;;6.03;;
21424;SDS011;10873;51.132;16.848;2022-10-18T02:45:31;10.18;;;6.35;;
21424;SDS011;10873;51.132;16.848;2022-10-18T02:47:58;10.85;;;5.70;;
21424;SDS011;10873;51.132;16.848;2022-10-18T02:50:25;6.75;;;5.60;;
21424;SDS011;10873;51.132;16.848;2022-10-18T02:52:51;8.80;;;5.80;;
21424;SDS011;10873;51.132;16.848;2022-10-18T02:55:17;7.00;;;5.70;;
21424;SDS011;10873;51.132;16.848;2022-10-18T02:57:44;9.20;;;5.55;;
21424;SDS011;10873;51.132;16.848;2022-10-18T03:00:10;9.20;;;6.10;;
21424;SDS011;10873;51.132;16.848;2022-10-18T03:02:37;8.20;;;6.28;;
21424;SDS011;10873;51.132;16.848;2022-10-18T03:05:03;7.60;;;6.20;;
21424;SDS011;10873;51.132;16.848;2022-10-18T03:07:31;8.35;;;6.10;;
21424;SDS011;10873;51.132;16.848;2022-10-18T03:09:57;7.90;;;5.40;;
21424;SDS011;10873;51.132;16.848;2022-10-18T03:12:23;7.43;;;6.20;;
21424;SDS011;10873;51.132;16.848;2022-10-18T03:14:50;8.32;;;5.75;;
21424;SDS011;10873;51.132;16.848;2022-10-18T03:17:16;6.78;;;5.45;;
21424;SDS011;10873;51.132;16.848;2022-10-18T03:19:42;6.85;;;5.45;;
21424;SDS011;10873;51.132;16.848;2022-10-18T03:22:08;7.63;;;5.68;;
21424;SDS011;10873;51.132;16.848;2022-10-18T03:24:35;7.30;;;6.05;;
21424;SDS011;10873;51.132;16.848;2022-10-18T03:27:02;7.15;;;5.72;;
21424;SDS011;10873;51.132;16.848;2022-10-18T03:29:28;9.45;;;5.82;;
21424;SDS011;10873;51.132;16.848;2022-10-18T03:31:54;6.45;;;5.72;;
21424;SDS011;10873;51.132;16.848;2022-10-18T03:34:20;9.95;;;5.93;;
21424;SDS011;10873;51.132;16.848;2022-10-18T03:36:46;8.68;;;5.70;;
21424;SDS011;10873;51.132;16.848;2022-10-18T03:39:12;8.07;;;5.78;;
21424;SDS011;10873;51.132;16.848;2022-10-18T03:41:40;7.57;;;6.07;;
21424;SDS011;10873;51.132;16.848;2022-10-18T03:44:06;10.38;;;6.55;;
21424;SDS011;10873;51.132;16.848;2022-10-18T03:46:33;7.82;;;5.88;;
21424;SDS011;10873;51.132;16.848;2022-10-18T03:48:59;7.15;;;5.90;;
21424;SDS011;10873;51.132;16.848;2022-10-18T03:51:25;8.68;;;5.82;;
21424;SDS011;10873;51.132;16.848;2022-10-18T03:53:51;9.95;;;6.55;;
21424;SDS011;10873;51.132;16.848;2022-10-18T03:56:17;9.00;;;5.63;;
21424;SDS011;10873;51.132;16.848;2022-10-18T03:58:44;6.53;;;5.82;;
21424;SDS011;10873;51.132;16.848;2022-10-18T04:01:11;10.32;;;6.00;;
21424;SDS011;10873;51.132;16.848;2022-10-18T04:03:37;7.28;;;5.80;;
21424;SDS011;10873;51.132;16.848;2022-10-18T04:06:03;6.30;;;5.38;;
21424;SDS011;10873;51.132;16.848;2022-10-18T04:08:29;10.38;;;6.00;;
21424;SDS011;10873;51.132;16.848;2022-10-18T04:10:56;8.52;;;6.10;;
21424;SDS011;10873;51.132;16.848;2022-10-18T04:13:22;6.88;;;6.05;;
21424;SDS011;10873;51.132;16.848;2022-10-18T04:15:49;8.50;;;5.82;;
21424;SDS011;10873;51.132;16.848;2022-10-18T04:18:15;9.20;;;5.70;;
21424;SDS011;10873;51.132;16.848;2022-10-18T04:20:42;6.05;;;5.38;;
21424;SDS011;10873;51.132;16.848;2022-10-18T04:23:08;10.35;;;5.90;;
21424;SDS011;10873;51.132;16.848;2022-10-18T04:25:34;7.82;;;5.30;;
21424;SDS011;10873;51.132;16.848;2022-10-18T04:28:00;6.10;;;5.22;;
21424;SDS011;10873;51.132;16.848;2022-10-18T04:30:29;9.07;;;5.85;;
21424;SDS011;10873;51.132;16.848;2022-10-18T04:32:56;12.02;;;6.43;;
21424;SDS011;10873;51.132;16.848;2022-10-18T04:35:22;9.30;;;6.18;;
21424;SDS011;10873;51.132;16.848;2022-10-18T04:37:50;10.02;;;6.25;;
21424;SDS011;10873;51.132;16.848;2022-10-18T04:40:16;7.35;;;6.20;;
21424;SDS011;10873;51.132;16.848;2022-10-18T04:42:44;10.27;;;5.50;;
21424;SDS011;10873;51.132;16.848;2022-10-18T04:45:10;9.95;;;5.63;;
21424;SDS011;10873;51.132;16.848;2022-10-18T04:47:36;9.98;;;5.45;;
21424;SDS011;10873;51.132;16.848;2022-10-18T04:50:04;6.35;;;5.40;;
21424;SDS011;10873;51.132;16.848;2022-10-18T04:52:30;7.07;;;5.25;;
21424;SDS011;10873;51.132;16.848;2022-10-18T04:54:57;9.02;;;5.20;;
21424;SDS011;10873;51.132;16.848;2022-10-18T04:57:23;8.75;;;4.90;;
21424;SDS011;10873;51.132;16.848;2022-10-18T04:59:49;26.65;;;5.68;;
21424;SDS011;10873;51.132;16.848;2022-10-18T05:02:15;25.70;;;7.15;;
21424;SDS011;10873;51.132;16.848;2022-10-18T05:04:42;29.70;;;6.25;;
21424;SDS011;10873;51.132;16.848;2022-10-18T05:07:09;13.10;;;6.32;;
21424;SDS011;10873;51.132;16.848;2022-10-18T05:09:35;16.40;;;5.40;;
21424;SDS011;10873;51.132;16.848;2022-10-18T05:12:01;13.25;;;5.30;;
21424;SDS011;10873;51.132;16.848;2022-10-18T05:14:28;9.15;;;5.63;;
21424;SDS011;10873;51.132;16.848;2022-10-18T05:16:54;24.55;;;5.40;;
21424;SDS011;10873;51.132;16.848;2022-10-18T05:19:20;12.32;;;4.93;;
21424;SDS011;10873;51.132;16.848;2022-10-18T05:21:46;18.90;;;5.53;;
21424;SDS011;10873;51.132;16.848;2022-10-18T05:24:14;17.00;;;5.60;;
21424;SDS011;10873;51.132;16.848;2022-10-18T05:26:40;18.48;;;5.97;;
21424;SDS011;10873;51.132;16.848;2022-10-18T05:29:06;13.18;;;5.90;;
21424;SDS011;10873;51.132;16.848;2022-10-18T05:31:32;14.95;;;5.93;;
21424;SDS011;10873;51.132;16.848;2022-10-18T05:33:59;13.00;;;5.88;;
21424;SDS011;10873;51.132;16.848;2022-10-18T05:36:26;9.10;;;5.43;;
21424;SDS011;10873;51.132;16.848;2022-10-18T05:38:52;11.15;;;6.13;;
21424;SDS011;10873;51.132;16.848;2022-10-18T05:41:20;14.25;;;5.72;;
21424;SDS011;10873;51.132;16.848;2022-10-18T05:43:46;9.05;;;6.00;;
21424;SDS011;10873;51.132;16.848;2022-10-18T05:46:12;10.07;;;5.18;;
21424;SDS011;10873;51.132;16.848;2022-10-18T05:48:38;7.57;;;5.63;;
21424;SDS011;10873;51.132;16.848;2022-10-18T05:51:04;8.68;;;5.30;;
21424;SDS011;10873;51.132;16.848;2022-10-18T05:53:31;8.05;;;5.68;;
21424;SDS011;10873;51.132;16.848;2022-10-18T05:55:58;13.07;;;5.70;;
21424;SDS011;10873;51.132;16.848;2022-10-18T05:58:27;14.52;;;5.40;;
21424;SDS011;10873;51.132;16.848;2022-10-18T06:00:53;11.20;;;5.55;;
21424;SDS011;10873;51.132;16.848;2022-10-18T06:03:19;12.77;;;5.45;;
21424;SDS011;10873;51.132;16.848;2022-10-18T06:05:45;16.50;;;5.53;;
21424;SDS011;10873;51.132;16.848;2022-10-18T06:08:11;8.38;;;5.20;;
21424;SDS011;10873;51.132;16.848;2022-10-18T06:10:37;12.52;;;5.60;;
21424;SDS011;10873;51.132;16.848;2022-10-18T06:13:04;10.35;;;5.43;;
21424;SDS011;10873;51.132;16.848;2022-10-18T06:15:32;10.05;;;5.38;;
21424;SDS011;10873;51.132;16.848;2022-10-18T06:17:58;10.13;;;5.43;;
21424;SDS011;10873;51.132;16.848;2022-10-18T06:20:24;13.73;;;5.68;;
21424;SDS011;10873;51.132;16.848;2022-10-18T06:22:50;25.00;;;6.78;;
21424;SDS011;10873;51.132;16.848;2022-10-18T06:25:17;61.03;;;9.40;;
21424;SDS011;10873;51.132;16.848;2022-10-18T06:27:43;47.90;;;10.48;;
21424;SDS011;10873;51.132;16.848;2022-10-18T06:30:10;54.00;;;10.05;;
21424;SDS011;10873;51.132;16.848;2022-10-18T06:32:37;47.80;;;9.98;;
21424;SDS011;10873;51.132;16.848;2022-10-18T06:35:04;39.17;;;10.10;;
21424;SDS011;10873;51.132;16.848;2022-10-18T06:37:31;36.25;;;8.98;;
21424;SDS011;10873;51.132;16.848;2022-10-18T06:39:59;29.92;;;8.73;;
21424;SDS011;10873;51.132;16.848;2022-10-18T06:42:25;34.47;;;8.30;;
21424;SDS011;10873;51.132;16.848;2022-10-18T06:44:51;19.85;;;7.13;;
21424;SDS011;10873;51.132;16.848;2022-10-18T06:47:17;21.17;;;7.13;;
21424;SDS011;10873;51.132;16.848;2022-10-18T06:49:45;23.45;;;7.55;;
21424;SDS011;10873;51.132;16.848;2022-10-18T06:52:11;24.60;;;7.15;;
21424;SDS011;10873;51.132;16.848;2022-10-18T06:54:37;51.63;;;9.30;;
21424;SDS011;10873;51.132;16.848;2022-10-18T06:57:03;35.28;;;8.90;;
21424;SDS011;10873;51.132;16.848;2022-10-18T06:59:29;36.13;;;8.75;;
21424;SDS011;10873;51.132;16.848;2022-10-18T07:01:55;29.77;;;8.20;;
21424;SDS011;10873;51.132;16.848;2022-10-18T07:04:21;21.40;;;6.95;;
21424;SDS011;10873;51.132;16.848;2022-10-18T07:06:49;28.95;;;7.72;;
21424;SDS011;10873;51.132;16.848;2022-10-18T07:09:17;30.58;;;7.82;;
21424;SDS011;10873;51.132;16.848;2022-10-18T07:11:44;28.85;;;7.88;;
21424;SDS011;10873;51.132;16.848;2022-10-18T07:14:10;34.90;;;7.93;;
21424;SDS011;10873;51.132;16.848;2022-10-18T07:16:36;24.38;;;8.00;;
21424;SDS011;10873;51.132;16.848;2022-10-18T07:19:02;29.90;;;8.18;;
21424;SDS011;10873;51.132;16.848;2022-10-18T07:21:28;23.30;;;7.75;;
21424;SDS011;10873;51.132;16.848;2022-10-18T07:23:56;25.13;;;7.88;;
21424;SDS011;10873;51.132;16.848;2022-10-18T07:26:23;21.42;;;8.15;;
21424;SDS011;10873;51.132;16.848;2022-10-18T07:28:51;18.48;;;7.25;;
21424;SDS011;10873;51.132;16.848;2022-10-18T07:31:20;16.60;;;6.85;;
21424;SDS011;10873;51.132;16.848;2022-10-18T07:33:47;15.63;;;6.60;;
21424;SDS011;10873;51.132;16.848;2022-10-18T07:36:13;15.40;;;6.57;;
21424;SDS011;10873;51.132;16.848;2022-10-18T07:38:39;10.63;;;5.82;;
21424;SDS011;10873;51.132;16.848;2022-10-18T07:41:07;13.43;;;6.53;;
21424;SDS011;10873;51.132;16.848;2022-10-18T07:43:35;14.23;;;6.45;;
21424;SDS011;10873;51.132;16.848;2022-10-18T07:46:02;20.05;;;6.70;;
21424;SDS011;10873;51.132;16.848;2022-10-18T07:48:29;29.50;;;7.20;;
21424;SDS011;10873;51.132;16.848;2022-10-18T07:50:56;14.00;;;5.78;;
21424;SDS011;10873;51.132;16.848;2022-10-18T07:53:23;13.25;;;6.43;;
21424;SDS011;10873;51.132;16.848;2022-10-18T07:55:50;15.52;;;6.30;;
21424;SDS011;10873;51.132;16.848;2022-10-18T07:58:17;12.77;;;5.97;;
21424;SDS011;10873;51.132;16.848;2022-10-18T08:00:44;18.55;;;6.32;;
21424;SDS011;10873;51.132;16.848;2022-10-18T08:03:10;13.15;;;5.90;;
21424;SDS011;10873;51.132;16.848;2022-10-18T08:05:36;18.77;;;6.20;;
21424;SDS011;10873;51.132;16.848;2022-10-18T08:08:02;23.30;;;6.78;;
21424;SDS011;10873;51.132;16.848;2022-10-18T08:10:28;18.58;;;7.03;;
21424;SDS011;10873;51.132;16.848;2022-10-18T08:12:54;22.70;;;7.35;;
21424;SDS011;10873;51.132;16.848;2022-10-18T08:15:22;25.80;;;7.57;;
21424;SDS011;10873;51.132;16.848;2022-10-18T08:17:50;22.75;;;7.32;;
21424;SDS011;10873;51.132;16.848;2022-10-18T08:20:16;17.42;;;6.97;;
21424;SDS011;10873;51.132;16.848;2022-10-18T08:22:42;24.15;;;7.80;;
21424;SDS011;10873;51.132;16.848;2022-10-18T08:25:09;12.32;;;6.55;;
21424;SDS011;10873;51.132;16.848;2022-10-18T08:27:35;17.67;;;7.22;;
21424;SDS011;10873;51.132;16.848;2022-10-18T08:30:01;14.75;;;6.53;;
21424;SDS011;10873;51.132;16.848;2022-10-18T08:32:29;17.13;;;6.50;;
21424;SDS011;10873;51.132;16.848;2022-10-18T08:34:55;13.45;;;6.30;;
21424;SDS011;10873;51.132;16.848;2022-10-18T08:37:21;22.42;;;6.93;;
21424;SDS011;10873;51.132;16.848;2022-10-18T08:39:47;31.02;;;7.90;;
21424;SDS011;10873;51.132;16.848;2022-10-18T08:42:22;24.95;;;7.28;;
21424;SDS011;10873;51.132;16.848;2022-10-18T08:45:05;13.65;;;6.90;;
21424;SDS011;10873;51.132;16.848;2022-10-18T08:47:36;15.63;;;6.75;;
21424;SDS011;10873;51.132;16.848;2022-10-18T08:50:06;17.85;;;7.18;;
21424;SDS011;10873;51.132;16.848;2022-10-18T08:52:42;16.50;;;6.82;;
21424;SDS011;10873;51.132;16.848;2022-10-18T08:55:13;12.82;;;6.05;;
21424;SDS011;10873;51.132;16.848;2022-10-18T08:57:45;10.98;;;6.38;;
21424;SDS011;10873;51.132;16.848;2022-10-18T09:00:14;9.13;;;6.30;;
21424;SDS011;10873;51.132;16.848;2022-10-18T09:02:45;12.80;;;6.35;;
21424;SDS011;10873;51.132;16.848;2022-10-18T09:05:21;9.77;;;6.03;;
21424;SDS011;10873;51.132;16.848;2022-10-18T09:08:02;15.93;;;6.25;;
21424;SDS011;10873;51.132;16.848;2022-10-18T09:10:42;14.32;;;6.57;;
21424;SDS011;10873;51.132;16.848;2022-10-18T09:13:25;12.48;;;5.97;;
21424;SDS011;10873;51.132;16.848;2022-10-18T09:16:16;11.23;;;6.25;;
21424;SDS011;10873;51.132;16.848;2022-10-18T09:18:53;11.43;;;6.88;;
21424;SDS011;10873;51.132;16.848;2022-10-18T09:21:25;11.85;;;6.50;;
21424;SDS011;10873;51.132;16.848;2022-10-18T09:24:03;10.48;;;6.00;;
21424;SDS011;10873;51.132;16.848;2022-10-18T09:26:37;12.77;;;6.68;;
21424;SDS011;10873;51.132;16.848;2022-10-18T09:29:09;10.13;;;6.30;;
21424;SDS011;10873;51.132;16.848;2022-10-18T09:31:51;10.75;;;6.53;;
21424;SDS011;10873;51.132;16.848;2022-10-18T09:34:24;14.80;;;6.63;;
21424;SDS011;10873;51.132;16.848;2022-10-18T09:36:55;9.25;;;6.10;;
21424;SDS011;10873;51.132;16.848;2022-10-18T09:39:22;9.35;;;6.57;;
21424;SDS011;10873;51.132;16.848;2022-10-18T09:41:53;11.40;;;5.80;;
21424;SDS011;10873;51.132;16.848;2022-10-18T09:44:24;10.95;;;5.93;;
21424;SDS011;10873;51.132;16.848;2022-10-18T09:46:55;14.13;;;6.35;;
21424;SDS011;10873;51.132;16.848;2022-10-18T09:49:26;8.63;;;6.10;;
21424;SDS011;10873;51.132;16.848;2022-10-18T09:51:54;10.55;;;6.72;;
21424;SDS011;10873;51.132;16.848;2022-10-18T09:54:25;11.10;;;6.75;;
21424;SDS011;10873;51.132;16.848;2022-10-18T09:56:56;11.90;;;6.32;;
21424;SDS011;10873;51.132;16.848;2022-10-18T09:59:31;8.75;;;6.25;;
21424;SDS011;10873;51.132;16.848;2022-10-18T10:02:01;9.85;;;5.75;;
21424;SDS011;10873;51.132;16.848;2022-10-18T10:04:28;10.15;;;6.32;;
21424;SDS011;10873;51.132;16.848;2022-10-18T10:06:55;9.15;;;6.18;;
21424;SDS011;10873;51.132;16.848;2022-10-18T10:09:25;9.75;;;6.35;;
21424;SDS011;10873;51.132;16.848;2022-10-18T10:11:54;13.70;;;6.68;;
21424;SDS011;10873;51.132;16.848;2022-10-18T10:14:21;8.82;;;6.32;;
21424;SDS011;10873;51.132;16.848;2022-10-18T10:16:49;7.90;;;6.28;;
21424;SDS011;10873;51.132;16.848;2022-10-18T10:19:17;8.70;;;6.28;;
21424;SDS011;10873;51.132;16.848;2022-10-18T10:21:48;7.85;;;6.38;;
21424;SDS011;10873;51.132;16.848;2022-10-18T10:24:19;11.45;;;6.10;;
21424;SDS011;10873;51.132;16.848;2022-10-18T10:26:49;10.38;;;6.15;;
21424;SDS011;10873;51.132;16.848;2022-10-18T10:32:19;9.90;;;6.60;;
21424;SDS011;10873;51.132;16.848;2022-10-18T10:34:46;12.38;;;6.90;;
21424;SDS011;10873;51.132;16.848;2022-10-18T10:37:24;9.63;;;6.80;;
21424;SDS011;10873;51.132;16.848;2022-10-18T10:43:00;15.93;;;6.38;;
21424;SDS011;10873;51.132;16.848;2022-10-18T10:45:29;10.13;;;6.13;;
21424;SDS011;10873;51.132;16.848;2022-10-18T10:48:03;9.70;;;6.53;;
21424;SDS011;10873;51.132;16.848;2022-10-18T10:50:50;8.57;;;5.95;;
21424;SDS011;10873;51.132;16.848;2022-10-18T10:53:31;7.90;;;6.45;;
21424;SDS011;10873;51.132;16.848;2022-10-18T10:56:00;8.18;;;6.05;;
21424;SDS011;10873;51.132;16.848;2022-10-18T10:58:32;8.20;;;6.45;;
21424;SDS011;10873;51.132;16.848;2022-10-18T11:01:15;8.98;;;6.45;;
21424;SDS011;10873;51.132;16.848;2022-10-18T11:03:47;10.38;;;6.47;;
21424;SDS011;10873;51.132;16.848;2022-10-18T11:09:07;9.35;;;6.25;;
21424;SDS011;10873;51.132;16.848;2022-10-18T11:11:40;9.27;;;6.40;;
21424;SDS011;10873;51.132;16.848;2022-10-18T11:14:22;8.25;;;6.38;;
21424;SDS011;10873;51.132;16.848;2022-10-18T11:16:53;13.80;;;6.80;;
21424;SDS011;10873;51.132;16.848;2022-10-18T11:19:28;9.13;;;6.53;;
21424;SDS011;10873;51.132;16.848;2022-10-18T11:22:01;7.32;;;6.10;;
21424;SDS011;10873;51.132;16.848;2022-10-18T11:24:33;9.32;;;6.60;;
21424;SDS011;10873;51.132;16.848;2022-10-18T11:27:01;8.80;;;6.78;;
21424;SDS011;10873;51.132;16.848;2022-10-18T11:29:41;8.98;;;6.72;;
21424;SDS011;10873;51.132;16.848;2022-10-18T11:32:17;7.70;;;6.28;;
21424;SDS011;10873;51.132;16.848;2022-10-18T11:34:54;6.90;;;6.20;;
21424;SDS011;10873;51.132;16.848;2022-10-18T11:37:41;9.77;;;6.15;;
21424;SDS011;10873;51.132;16.848;2022-10-18T11:40:29;8.38;;;6.50;;
21424;SDS011;10873;51.132;16.848;2022-10-18T11:43:05;9.27;;;6.40;;
21424;SDS011;10873;51.132;16.848;2022-10-18T11:45:38;8.50;;;6.03;;
21424;SDS011;10873;51.132;16.848;2022-10-18T11:48:15;8.68;;;6.40;;
21424;SDS011;10873;51.132;16.848;2022-10-18T11:50:58;9.15;;;6.40;;
21424;SDS011;10873;51.132;16.848;2022-10-18T11:53:32;9.13;;;5.93;;
21424;SDS011;10873;51.132;16.848;2022-10-18T11:56:08;9.48;;;6.35;;
21424;SDS011;10873;51.132;16.848;2022-10-18T11:58:44;9.88;;;6.35;;
21424;SDS011;10873;51.132;16.848;2022-10-18T12:01:21;8.63;;;6.18;;
21424;SDS011;10873;51.132;16.848;2022-10-18T12:03:53;9.73;;;6.40;;
21424;SDS011;10873;51.132;16.848;2022-10-18T12:06:27;12.05;;;7.18;;
21424;SDS011;10873;51.132;16.848;2022-10-18T12:09:01;17.23;;;7.72;;
21424;SDS011;10873;51.132;16.848;2022-10-18T12:11:31;16.35;;;8.50;;
21424;SDS011;10873;51.132;16.848;2022-10-18T12:14:02;14.65;;;8.50;;
21424;SDS011;10873;51.132;16.848;2022-10-18T12:16:33;17.17;;;8.88;;
21424;SDS011;10873;51.132;16.848;2022-10-18T12:19:03;13.90;;;8.60;;
21424;SDS011;10873;51.132;16.848;2022-10-18T12:21:33;17.95;;;8.88;;
21424;SDS011;10873;51.132;16.848;2022-10-18T12:24:01;13.07;;;8.52;;
21424;SDS011;10873;51.132;16.848;2022-10-18T12:26:31;15.18;;;8.57;;
21424;SDS011;10873;51.132;16.848;2022-10-18T12:29:02;16.23;;;8.30;;
21424;SDS011;10873;51.132;16.848;2022-10-18T12:31:38;14.23;;;8.48;;
21424;SDS011;10873;51.132;16.848;2022-10-18T12:34:14;11.50;;;8.68;;
21424;SDS011;10873;51.132;16.848;2022-10-18T12:36:55;14.45;;;8.60;;
21424;SDS011;10873;51.132;16.848;2022-10-18T12:39:39;14.85;;;8.57;;
21424;SDS011;10873;51.132;16.848;2022-10-18T12:42:16;16.08;;;8.93;;
21424;SDS011;10873;51.132;16.848;2022-10-18T12:44:44;16.67;;;9.07;;
21424;SDS011;10873;51.132;16.848;2022-10-18T12:47:18;16.77;;;8.85;;
21424;SDS011;10873;51.132;16.848;2022-10-18T12:49:46;18.27;;;9.10;;
21424;SDS011;10873;51.132;16.848;2022-10-18T12:52:21;18.95;;;9.02;;
21424;SDS011;10873;51.132;16.848;2022-10-18T12:54:59;16.02;;;8.82;;
21424;SDS011;10873;51.132;16.848;2022-10-18T12:57:59;17.98;;;8.80;;
21424;SDS011;10873;51.132;16.848;2022-10-18T13:00:51;15.02;;;8.73;;
21424;SDS011;10873;51.132;16.848;2022-10-18T13:03:28;17.05;;;8.63;;
21424;SDS011;10873;51.132;16.848;2022-10-18T13:06:02;18.02;;;8.93;;
21424;SDS011;10873;51.132;16.848;2022-10-18T13:08:36;13.13;;;8.32;;
21424;SDS011;10873;51.132;16.848;2022-10-18T13:11:13;16.00;;;8.80;;
21424;SDS011;10873;51.132;16.848;2022-10-18T13:14:01;12.30;;;8.23;;
21424;SDS011;10873;51.132;16.848;2022-10-18T13:16:49;13.63;;;8.48;;
21424;SDS011;10873;51.132;16.848;2022-10-18T13:19:22;17.40;;;8.65;;
21424;SDS011;10873;51.132;16.848;2022-10-18T13:21:55;13.95;;;8.73;;
21424;SDS011;10873;51.132;16.848;2022-10-18T13:24:35;12.38;;;8.05;;
21424;SDS011;10873;51.132;16.848;2022-10-18T13:27:14;16.60;;;8.95;;
21424;SDS011;10873;51.132;16.848;2022-10-18T13:30:08;10.20;;;7.93;;
21424;SDS011;10873;51.132;16.848;2022-10-18T13:32:43;14.57;;;8.35;;
21424;SDS011;10873;51.132;16.848;2022-10-18T13:38:25;15.02;;;8.30;;
21424;SDS011;10873;51.132;16.848;2022-10-18T13:41:07;12.98;;;7.95;;
21424;SDS011;10873;51.132;16.848;2022-10-18T13:46:23;13.93;;;8.35;;
21424;SDS011;10873;51.132;16.848;2022-10-18T13:49:16;15.43;;;8.15;;
21424;SDS011;10873;51.132;16.848;2022-10-18T13:51:54;14.30;;;8.50;;
21424;SDS011;10873;51.132;16.848;2022-10-18T13:57:22;11.52;;;8.25;;
21424;SDS011;10873;51.132;16.848;2022-10-18T14:00:17;11.90;;;8.40;;
21424;SDS011;10873;51.132;16.848;2022-10-18T14:06:01;11.02;;;8.50;;
21424;SDS011;10873;51.132;16.848;2022-10-18T14:08:33;16.35;;;9.25;;
21424;SDS011;10873;51.132;16.848;2022-10-18T14:11:03;14.57;;;9.15;;
21424;SDS011;10873;51.132;16.848;2022-10-18T14:13:34;13.65;;;8.77;;
21424;SDS011;10873;51.132;16.848;2022-10-18T14:16:08;10.90;;;8.27;;
21424;SDS011;10873;51.132;16.848;2022-10-18T14:18:45;11.73;;;8.88;;
21424;SDS011;10873;51.132;16.848;2022-10-18T14:21:17;12.93;;;8.75;;
21424;SDS011;10873;51.132;16.848;2022-10-18T14:23:49;12.95;;;7.75;;
21424;SDS011;10873;51.132;16.848;2022-10-18T14:26:15;11.52;;;7.68;;
21424;SDS011;10873;51.132;16.848;2022-10-18T14:28:43;10.02;;;7.40;;
21424;SDS011;10873;51.132;16.848;2022-10-18T14:31:11;12.43;;;7.80;;
21424;SDS011;10873;51.132;16.848;2022-10-18T14:33:40;9.48;;;6.82;;
21424;SDS011;10873;51.132;16.848;2022-10-18T14:36:08;8.65;;;6.57;;
21424;SDS011;10873;51.132;16.848;2022-10-18T14:38:44;14.20;;;7.15;;
21424;SDS011;10873;51.132;16.848;2022-10-18T14:41:14;13.02;;;6.47;;
21424;SDS011;10873;51.132;16.848;2022-10-18T14:43:41;8.18;;;5.95;;
21424;SDS011;10873;51.132;16.848;2022-10-18T14:46:19;9.38;;;5.80;;
21424;SDS011;10873;51.132;16.848;2022-10-18T14:48:52;8.13;;;5.63;;
21424;SDS011;10873;51.132;16.848;2022-10-18T14:51:19;9.00;;;5.30;;
21424;SDS011;10873;51.132;16.848;2022-10-18T14:53:47;9.27;;;5.60;;
21424;SDS011;10873;51.132;16.848;2022-10-18T14:56:22;8.20;;;5.93;;
21424;SDS011;10873;51.132;16.848;2022-10-18T14:58:50;12.43;;;7.30;;
21424;SDS011;10873;51.132;16.848;2022-10-18T15:01:18;6.40;;;5.63;;
21424;SDS011;10873;51.132;16.848;2022-10-18T15:03:46;9.30;;;6.57;;
21424;SDS011;10873;51.132;16.848;2022-10-18T15:06:14;11.40;;;6.63;;
21424;SDS011;10873;51.132;16.848;2022-10-18T15:08:43;8.70;;;6.03;;
21424;SDS011;10873;51.132;16.848;2022-10-18T15:11:12;6.78;;;5.35;;